Time;durP1;ratioP1;P1;durP2;ratioP2;P2;SDS_P1;SDS_P2;PMS_P1;PMS_P2;Temp;Humidity;BMP_temperature;BMP_pressure;BME280_temperature;BME280_humidity;BME280_pressure;Samples;Min_cycle;Max_cycle;Signal;HPM_P1;HPM_P2
2022/09/02 00:02:00;;;;;;;0.77;0.77;;;;;;;9.15;66.04;98931.47;5036441;28;20055;-74
2022/09/02 00:04:26;;;;;;;0.77;0.77;;;;;;;9.17;65.53;98942.84;5017813;28;20040;-75
2022/09/02 00:06:53;;;;;;;2.58;1.35;;;;;;;9.14;65.14;98943.94;5037174;28;20056;-74
2022/09/02 00:09:22;;;;;;;1.83;1.02;;;;;;;9.19;65.33;98946.25;5036516;28;20041;-71
2022/09/02 00:11:49;;;;;;;1.08;0.98;;;;;;;9.19;65.15;98948.91;5018581;28;20044;-70
2022/09/02 00:14:18;;;;;;;0.70;0.70;;;;;;;9.22;65.36;98938.03;5035394;28;20119;-69
2022/09/02 00:16:50;;;;;;;1.40;0.95;;;;;;;9.21;65.27;98939.84;5034763;28;20501;-68
2022/09/02 00:19:16;;;;;;;1.45;0.90;;;;;;;9.22;65.02;98944.19;5034504;28;20036;-69
2022/09/02 00:21:41;;;;;;;1.30;0.93;;;;;;;9.23;65.26;98945.06;5035122;28;20044;-74
2022/09/02 00:24:06;;;;;;;1.15;0.80;;;;;;;9.22;65.40;98951.34;5017751;28;20036;-76
2022/09/02 00:26:31;;;;;;;0.75;0.75;;;;;;;9.16;65.28;98957.09;5035393;28;20090;-73
2022/09/02 00:28:56;;;;;;;1.00;0.90;;;;;;;9.12;65.46;98953.84;5017737;28;20040;-72
2022/09/02 00:31:24;;;;;;;1.70;1.33;;;;;;;9.13;65.49;98960.88;5033732;28;20075;-69
2022/09/02 00:33:50;;;;;;;1.60;0.70;;;;;;;9.11;65.63;98946.84;5012764;28;20041;-71
2022/09/02 00:36:15;;;;;;;3.13;1.00;;;;;;;9.10;65.59;98946.00;5014921;28;20121;-71
2022/09/02 00:38:40;;;;;;;2.80;1.20;;;;;;;9.03;65.17;98942.09;5018318;28;20124;-70
2022/09/02 00:41:08;;;;;;;1.95;1.05;;;;;;;9.08;65.38;98944.41;5007037;28;20119;-77
2022/09/02 00:43:50;;;;;;;1.27;1.10;;;;;;;9.15;65.02;98939.44;5001354;28;20044;-72
2022/09/02 00:46:18;;;;;;;1.30;0.98;;;;;;;9.13;64.69;98946.72;5014637;28;20533;-73
2022/09/02 00:49:07;;;;;;;4.00;1.05;;;;;;;9.18;64.54;98947.19;5038784;28;20044;-74
2022/09/02 00:52:02;;;;;;;1.67;0.85;;;;;;;9.23;64.79;98940.59;5021822;28;20048;-69
2022/09/02 00:54:30;;;;;;;1.70;0.77;;;;;;;9.21;64.79;98955.81;5020120;28;20059;-70
2022/09/02 00:56:55;;;;;;;1.02;0.80;;;;;;;9.24;64.54;98949.41;5039400;28;20055;-77
2022/09/02 00:59:27;;;;;;;1.38;1.00;;;;;;;9.27;64.47;98954.47;5041208;28;20122;-71
2022/09/02 01:01:52;;;;;;;1.35;0.88;;;;;;;9.28;64.52;98956.16;5023248;28;20082;-73
2022/09/02 01:04:16;;;;;;;0.82;0.82;;;;;;;9.31;65.01;98950.63;5058264;28;20067;-72
2022/09/02 01:06:41;;;;;;;1.90;1.55;;;;;;;9.35;64.41;98952.09;5058004;28;20052;-71
2022/09/02 01:09:11;;;;;;;3.10;2.33;;;;;;;9.34;64.81;98956.56;5058536;28;20067;-74
2022/09/02 01:11:46;;;;;;;3.83;2.55;;;;;;;9.37;64.84;98950.13;5041986;28;20406;-77
2022/09/02 01:14:12;;;;;;;2.40;2.20;;;;;;;9.32;65.01;98952.31;5041436;28;20155;-74
2022/09/02 01:16:46;;;;;;;3.58;2.13;;;;;;;9.36;65.32;98946.66;5039180;28;20048;-73
2022/09/02 01:19:28;;;;;;;5.00;1.58;;;;;;;9.38;65.52;98942.03;5041832;28;20131;-72
2022/09/02 01:21:55;;;;;;;2.65;1.65;;;;;;;9.31;65.44;98950.63;5053959;28;20055;-73
2022/09/02 01:24:24;;;;;;;1.58;1.48;;;;;;;9.31;65.99;98955.94;5060019;28;20495;-71
2022/09/02 01:26:52;;;;;;;4.38;1.50;;;;;;;9.30;66.39;98946.25;5040586;28;20067;-72
2022/09/02 01:29:19;;;;;;;1.42;0.90;;;;;;;9.26;66.44;98939.47;5046488;28;20069;-75
2022/09/02 01:31:44;;;;;;;0.68;0.68;;;;;;;9.25;66.76;98949.28;5040180;28;20048;-73
2022/09/02 01:34:10;;;;;;;1.77;1.48;;;;;;;9.13;67.58;98952.03;5058021;28;20042;-74
2022/09/02 01:36:39;;;;;;;2.40;0.70;;;;;;;9.14;68.03;98956.41;5024338;28;20044;-77
2022/09/02 01:39:03;;;;;;;1.20;1.08;;;;;;;9.09;68.16;98967.38;5039874;28;20097;-76
2022/09/02 01:41:29;;;;;;;1.33;1.23;;;;;;;9.04;68.68;98967.72;5039839;28;20044;-70
2022/09/02 01:43:54;;;;;;;1.42;0.95;;;;;;;9.01;68.83;98970.63;5058537;28;20047;-70
2022/09/02 01:46:19;;;;;;;0.98;0.90;;;;;;;8.97;69.15;98969.16;5039882;28;20136;-71
2022/09/02 01:48:44;;;;;;;0.73;0.73;;;;;;;8.94;69.01;98968.53;5057072;28;20127;-75
2022/09/02 01:51:17;;;;;;;0.82;0.70;;;;;;;8.92;68.69;98968.63;5039624;28;20053;-75
2022/09/02 01:53:44;;;;;;;0.60;0.60;;;;;;;8.88;68.42;98977.81;5023222;28;20513;-72
2022/09/02 01:56:09;;;;;;;0.85;0.70;;;;;;;8.86;68.77;98977.09;5040212;28;20290;-72
2022/09/02 01:58:34;;;;;;;0.60;0.60;;;;;;;8.83;68.75;98981.78;5057476;28;20051;-72
2022/09/02 02:00:58;;;;;;;0.50;0.50;;;;;;;8.81;68.82;98978.38;5057256;28;20044;-71
2022/09/02 02:03:24;;;;;;;0.45;0.45;;;;;;;8.78;68.59;98987.44;5039115;28;20523;-70
2022/09/02 02:05:49;;;;;;;0.82;0.82;;;;;;;8.74;68.57;98988.63;5039020;28;20135;-73
2022/09/02 02:08:15;;;;;;;0.70;0.70;;;;;;;8.75;68.61;98990.31;5022789;28;20048;-72
2022/09/02 02:10:41;;;;;;;0.45;0.45;;;;;;;8.72;68.91;98991.41;5038632;28;20038;-71
2022/09/02 02:13:07;;;;;;;1.92;0.60;;;;;;;8.70;69.17;98993.31;5055748;28;20414;-70
2022/09/02 02:15:37;;;;;;;0.65;0.55;;;;;;;8.71;69.50;98994.16;5021995;28;20040;-71
2022/09/02 02:18:02;;;;;;;0.52;0.52;;;;;;;8.65;70.19;98992.81;5038792;28;20069;-71
2022/09/02 02:20:27;;;;;;;2.08;0.40;;;;;;;8.65;70.44;98989.31;5056674;28;20050;-72
2022/09/02 02:22:52;;;;;;;0.80;0.52;;;;;;;8.60;69.86;98987.00;5039181;28;20444;-73
2022/09/02 02:25:17;;;;;;;0.63;0.63;;;;;;;8.57;69.90;98986.38;5064399;28;20046;-72
2022/09/02 02:27:43;;;;;;;2.30;0.95;;;;;;;8.55;70.25;98980.34;5066649;28;20538;-72
2022/09/02 02:30:09;;;;;;;0.65;0.65;;;;;;;8.53;70.62;98990.22;5044053;28;20127;-74
2022/09/02 02:32:35;;;;;;;0.47;0.47;;;;;;;8.43;70.67;98990.06;5039422;28;20105;-72
2022/09/02 02:35:01;;;;;;;0.57;0.57;;;;;;;8.35;70.74;98987.13;5039411;28;20629;-72
2022/09/02 02:37:28;;;;;;;2.15;0.85;;;;;;;8.30;70.62;98992.72;5040313;28;20074;-74
2022/09/02 02:39:54;;;;;;;0.60;0.60;;;;;;;8.30;71.14;98989.22;5058747;28;20075;-74
2022/09/02 02:42:19;;;;;;;0.50;0.50;;;;;;;8.32;70.96;98987.31;5025060;28;20089;-74
2022/09/02 02:44:44;;;;;;;1.02;0.80;;;;;;;8.35;70.71;99003.06;5038984;28;20469;-71
2022/09/02 02:47:10;;;;;;;1.75;0.93;;;;;;;8.36;70.94;99007.38;5038922;28;20048;-70
2022/09/02 02:49:38;;;;;;;1.05;0.95;;;;;;;8.41;70.91;99001.75;5038517;28;20096;-72
2022/09/02 02:52:03;;;;;;;1.88;1.08;;;;;;;8.44;71.19;98997.06;5056235;28;20104;-70
2022/09/02 02:54:28;;;;;;;0.82;0.82;;;;;;;8.46;71.29;99004.91;5039212;28;20040;-72
2022/09/02 02:56:56;;;;;;;0.60;0.60;;;;;;;8.51;71.02;99010.72;5038463;28;20524;-69
2022/09/02 02:59:20;;;;;;;0.88;0.88;;;;;;;8.57;70.58;99007.66;5038332;28;20482;-68
2022/09/02 03:01:45;;;;;;;1.25;0.75;;;;;;;8.61;69.66;99017.06;5039972;28;20039;-73
2022/09/02 03:04:10;;;;;;;0.85;0.82;;;;;;;8.67;69.52;99017.47;5040516;28;20051;-71
2022/09/02 03:06:35;;;;;;;1.98;1.45;;;;;;;8.73;69.28;99017.00;5057879;28;20044;-70
2022/09/02 03:09:00;;;;;;;0.90;0.80;;;;;;;8.78;68.79;99016.69;5039290;28;20139;-69
2022/09/02 03:11:27;;;;;;;1.15;0.93;;;;;;;8.80;68.05;99027.22;5044350;28;20047;-71
2022/09/02 03:13:53;;;;;;;1.17;0.90;;;;;;;8.82;68.04;99019.94;5064133;28;20067;-70
2022/09/02 03:16:18;;;;;;;1.30;0.98;;;;;;;8.88;67.58;99025.66;5061421;28;20039;-70
2022/09/02 03:18:46;;;;;;;1.05;0.90;;;;;;;8.90;67.56;99026.41;5042441;28;20047;-70
2022/09/02 03:21:12;;;;;;;1.58;0.80;;;;;;;8.93;67.40;99026.16;5039243;28;20122;-70
2022/09/02 03:23:37;;;;;;;0.60;0.60;;;;;;;8.99;66.93;99022.22;5037322;28;20051;-70
2022/09/02 03:26:07;;;;;;;1.20;1.10;;;;;;;9.02;67.03;99019.34;5037864;28;20100;-70
2022/09/02 03:28:36;;;;;;;0.80;0.80;;;;;;;9.04;66.68;99023.53;5021017;28;20047;-70
2022/09/02 03:31:03;;;;;;;1.23;1.08;;;;;;;9.10;67.14;99028.41;5037756;28;20074;-70
2022/09/02 03:33:28;;;;;;;0.80;0.80;;;;;;;9.17;66.53;99030.59;5037437;28;20130;-70
2022/09/02 03:35:54;;;;;;;1.02;1.00;;;;;;;9.19;65.99;99026.88;5022822;28;20078;-69
2022/09/02 03:38:20;;;;;;;1.10;0.73;;;;;;;9.24;66.04;99026.53;5037403;28;20043;-70
2022/09/02 03:40:45;;;;;;;0.77;0.77;;;;;;;9.28;65.30;99025.31;5037137;28;20462;-70
2022/09/02 03:43:10;;;;;;;2.55;1.00;;;;;;;9.31;64.85;99025.94;5055095;28;20046;-70
2022/09/02 03:45:39;;;;;;;1.23;0.68;;;;;;;9.36;64.58;99022.94;5036996;28;20036;-68
2022/09/02 03:48:04;;;;;;;2.80;0.80;;;;;;;9.41;64.59;99036.72;5037059;28;20055;-68
2022/09/02 03:50:38;;;;;;;1.48;0.63;;;;;;;9.49;64.17;99029.00;5036956;28;20577;-68
2022/09/02 03:53:05;;;;;;;0.77;0.77;;;;;;;9.54;63.32;99031.31;5037438;28;20047;-67
2022/09/02 03:55:30;;;;;;;1.30;0.80;;;;;;;9.59;63.39;99035.34;5055011;28;20063;-68
2022/09/02 03:57:55;;;;;;;3.58;1.90;;;;;;;9.66;62.79;99049.84;5036916;28;20059;-68
2022/09/02 04:00:24;;;;;;;1.40;1.27;;;;;;;9.74;62.23;99052.75;5036730;28;20502;-67
2022/09/02 04:02:50;;;;;;;0.88;0.80;;;;;;;9.74;61.67;99047.44;5037097;28;20075;-67
2022/09/02 04:05:17;;;;;;;1.25;0.70;;;;;;;9.82;62.03;99047.69;5037293;28;20052;-67
2022/09/02 04:07:44;;;;;;;0.70;0.70;;;;;;;9.91;61.27;99054.13;5036596;28;20043;-67
2022/09/02 04:10:11;;;;;;;0.50;0.50;;;;;;;9.99;61.11;99058.84;5036883;28;20082;-66
2022/09/02 04:12:37;;;;;;;2.25;1.55;;;;;;;10.00;61.12;99057.88;5036209;28;20043;-67
2022/09/02 04:15:04;;;;;;;0.63;0.63;;;;;;;10.06;60.51;99060.03;5036570;28;20096;-68
2022/09/02 04:17:30;;;;;;;1.00;0.80;;;;;;;10.11;60.62;99052.56;5036837;28;20597;-68
2022/09/02 04:19:55;;;;;;;0.63;0.63;;;;;;;10.11;60.56;99063.22;5037433;28;20040;-69
2022/09/02 04:22:20;;;;;;;0.88;0.70;;;;;;;10.15;60.09;99065.53;5021164;28;20039;-67
2022/09/02 04:24:44;;;;;;;2.08;0.95;;;;;;;10.14;59.91;99065.63;5037712;28;20051;-67
2022/09/02 04:27:09;;;;;;;0.70;0.70;;;;;;;10.20;60.02;99062.50;5054569;28;20148;-66
2022/09/02 04:29:34;;;;;;;0.55;0.55;;;;;;;10.26;59.75;99058.53;5054676;28;20043;-68
2022/09/02 04:31:59;;;;;;;1.02;0.55;;;;;;;10.32;59.45;99056.22;5054752;28;20145;-68
2022/09/02 04:34:24;;;;;;;1.17;0.65;;;;;;;10.41;59.94;99054.63;4995654;28;20053;-68
2022/09/02 04:36:51;;;;;;;0.77;0.77;;;;;;;10.41;59.58;99065.28;4995679;28;20167;-69
2022/09/02 04:39:17;;;;;;;1.98;1.45;;;;;;;10.42;59.37;99067.81;4996010;28;20061;-68
2022/09/02 04:41:42;;;;;;;1.70;0.98;;;;;;;10.45;59.37;99072.06;4996036;28;20410;-68
2022/09/02 04:44:09;;;;;;;1.00;0.68;;;;;;;10.44;59.22;99067.72;4995925;28;20864;-68
2022/09/02 04:46:38;;;;;;;2.20;0.70;;;;;;;10.46;59.95;99068.44;4980362;28;20037;-69
2022/09/02 04:49:07;;;;;;;1.02;0.80;;;;;;;10.48;59.97;99075.34;4995929;28;20049;-69
2022/09/02 04:51:32;;;;;;;1.60;1.20;;;;;;;10.47;60.44;99070.97;4980558;28;20049;-69
2022/09/02 04:53:59;;;;;;;0.85;0.85;;;;;;;10.44;60.62;99081.88;5014474;28;20053;-69
2022/09/02 04:56:27;;;;;;;1.58;1.00;;;;;;;10.45;61.48;99083.56;4997699;28;20061;-69
2022/09/02 04:58:54;;;;;;;1.27;0.90;;;;;;;10.43;61.25;99085.50;4996400;28;20049;-69
2022/09/02 05:01:24;;;;;;;2.05;1.17;;;;;;;10.42;61.63;99082.97;4995827;28;20044;-69
2022/09/02 05:03:50;;;;;;;1.23;1.00;;;;;;;10.41;61.31;99087.44;4995433;28;20122;-69
2022/09/02 05:06:25;;;;;;;3.25;1.20;;;;;;;10.57;61.29;99086.22;5015182;28;20418;-73
2022/09/02 05:08:50;;;;;;;1.08;0.80;;;;;;;10.86;60.49;99098.03;5020107;28;20046;-71
2022/09/02 05:11:19;;;;;;;1.17;0.77;;;;;;;11.16;59.67;99090.22;5036742;28;20043;-71
2022/09/02 05:13:55;;;;;;;1.65;1.10;;;;;;;11.25;59.54;99100.13;5036677;28;20409;-72
2022/09/02 05:16:25;;;;;;;1.27;1.15;;;;;;;11.45;59.76;99100.28;5025584;28;20035;-70
2022/09/02 05:18:51;;;;;;;1.33;0.90;;;;;;;11.54;59.55;99104.84;5057025;28;20040;-71
2022/09/02 05:21:17;;;;;;;1.27;1.10;;;;;;;11.49;59.56;99107.91;5055565;28;20410;-71
2022/09/02 05:23:43;;;;;;;0.60;0.60;;;;;;;11.33;59.65;99106.63;5037833;28;20044;-70
2022/09/02 05:26:11;;;;;;;4.78;1.20;;;;;;;11.14;60.42;99113.50;5058184;28;20047;-70
2022/09/02 05:28:37;;;;;;;1.77;1.00;;;;;;;11.06;61.36;99110.59;5040361;28;20093;-69
2022/09/02 05:31:09;;;;;;;7.22;4.35;;;;;;;11.24;60.43;99125.09;5040390;28;20085;-70
2022/09/02 05:33:39;;;;;;;3.75;1.90;;;;;;;11.57;60.47;99126.78;5057988;28;20044;-71
2022/09/02 05:36:11;;;;;;;7.65;4.25;;;;;;;12.10;59.80;99125.91;5044661;28;20048;-71
2022/09/02 05:38:38;;;;;;;1.17;1.17;;;;;;;12.50;58.08;99129.50;5059531;28;20087;-70
2022/09/02 05:41:13;;;;;;;1.42;0.98;;;;;;;12.77;57.63;99120.00;5039947;28;20044;-70
2022/09/02 05:43:39;;;;;;;2.60;1.30;;;;;;;12.76;56.77;99129.03;5023355;28;20069;-70
2022/09/02 05:46:09;;;;;;;2.58;1.20;;;;;;;12.73;56.59;99132.84;5039454;28;20101;-71
2022/09/02 05:51:22;;;;;;;1.15;0.98;;;;;;;12.55;55.30;99139.78;5039704;28;20047;-70
2022/09/02 05:53:50;;;;;;;2.67;1.40;;;;;;;12.48;56.15;99122.59;5057760;28;20044;-66
2022/09/02 05:56:15;;;;;;;1.00;0.90;;;;;;;12.48;55.78;99134.13;5039290;28;20395;-67
2022/09/02 05:58:41;;;;;;;1.63;1.20;;;;;;;12.52;54.88;99135.56;5057528;28;20048;-69
2022/09/02 06:01:10;;;;;;;1.23;0.98;;;;;;;12.55;54.75;99131.75;5039435;28;20093;-70
2022/09/02 06:03:35;;;;;;;2.20;1.15;;;;;;;12.47;54.82;99140.47;5057302;28;20044;-69
2022/09/02 06:06:03;;;;;;;3.08;0.82;;;;;;;12.39;54.90;99142.97;5038860;28;20048;-68
2022/09/02 06:08:28;;;;;;;2.33;1.08;;;;;;;12.31;54.88;99138.25;5038738;28;20052;-69
2022/09/02 06:10:53;;;;;;;1.83;0.98;;;;;;;12.27;55.04;99139.53;5057218;28;20124;-71
2022/09/02 06:13:21;;;;;;;0.77;0.75;;;;;;;12.21;54.99;99149.88;5038866;28;20067;-71
2022/09/02 06:15:49;;;;;;;1.45;1.10;;;;;;;12.09;54.60;99154.44;5038844;28;20075;-67
2022/09/02 06:18:15;;;;;;;0.98;0.80;;;;;;;12.05;54.58;99153.03;5055899;28;20093;-72
2022/09/02 06:20:45;;;;;;;1.27;0.80;;;;;;;12.12;55.12;99158.69;5038681;28;20627;-69
2022/09/02 06:23:12;;;;;;;5.22;1.02;;;;;;;12.27;54.27;99162.72;5021958;28;20040;-69
2022/09/02 06:25:41;;;;;;;1.80;0.73;;;;;;;12.50;54.44;99161.59;5039078;28;20055;-69
2022/09/02 06:28:07;;;;;;;1.35;0.93;;;;;;;12.69;54.13;99164.34;5039013;28;20040;-69
2022/09/02 06:30:38;;;;;;;1.48;0.88;;;;;;;12.88;53.33;99163.56;5038547;28;20048;-68
2022/09/02 06:33:03;;;;;;;0.75;0.70;;;;;;;13.03;53.69;99172.91;5038288;28;20051;-69
2022/09/02 06:35:30;;;;;;;3.05;0.82;;;;;;;13.05;53.85;99184.34;5039912;28;20048;-68
2022/09/02 06:37:55;;;;;;;1.13;0.85;;;;;;;12.99;54.74;99175.97;5025017;28;20036;-69
2022/09/02 06:40:21;;;;;;;1.00;0.80;;;;;;;13.01;54.55;99182.06;5039741;28;20422;-68
2022/09/02 06:42:48;;;;;;;2.83;0.88;;;;;;;13.17;54.28;99187.78;5041221;28;20074;-66
2022/09/02 06:45:25;;;;;;;0.82;0.77;;;;;;;13.41;53.72;99184.72;5041187;28;20051;-68
2022/09/02 06:47:52;;;;;;;0.98;0.73;;;;;;;13.51;52.40;99192.78;5042336;28;20046;-67
2022/09/02 06:50:17;;;;;;;4.15;0.70;;;;;;;13.53;52.77;99197.00;5039899;28;20562;-67
2022/09/02 06:52:42;;;;;;;0.70;0.70;;;;;;;13.54;52.46;99193.34;5038851;28;20460;-68
2022/09/02 06:55:09;;;;;;;1.58;1.27;;;;;;;14.26;51.15;99195.56;5037802;28;20044;-68
2022/09/02 06:57:35;;;;;;;2.47;1.42;;;;;;;15.91;47.75;99188.44;5037666;28;20089;-67
2022/09/02 07:00:08;;;;;;;1.33;1.05;;;;;;;17.37;43.90;99184.81;5037808;28;20078;-68
2022/09/02 07:02:33;;;;;;;3.47;1.00;;;;;;;17.89;41.65;99198.09;5055629;28;20048;-68
2022/09/02 07:05:13;;;;;;;3.70;1.20;;;;;;;18.02;41.30;99208.38;5055760;28;20040;-69
2022/09/02 07:07:43;;;;;;;5.28;1.42;;;;;;;18.22;40.36;99204.34;5037642;28;20494;-69
2022/09/02 07:10:12;;;;;;;1.58;1.00;;;;;;;18.30;40.51;99207.03;5037574;28;20406;-69
2022/09/02 07:12:40;;;;;;;1.35;1.20;;;;;;;18.10;40.25;99205.69;5037774;28;20050;-69
2022/09/02 07:15:09;;;;;;;3.22;1.40;;;;;;;17.57;41.26;99209.63;5054495;28;20138;-68
2022/09/02 07:17:37;;;;;;;4.57;1.30;;;;;;;17.06;42.18;99216.84;5043171;28;20032;-69
2022/09/02 07:20:06;;;;;;;4.78;2.03;;;;;;;16.64;42.81;99224.00;5037672;28;20509;-70
2022/09/02 07:22:42;;;;;;;4.22;1.58;;;;;;;16.65;42.83;99225.69;5039865;28;20047;-69
2022/09/02 07:25:09;;;;;;;3.03;1.50;;;;;;;17.03;42.11;99213.63;5039653;28;20048;-70
2022/09/02 07:27:36;;;;;;;1.75;1.27;;;;;;;17.63;40.83;99216.22;5038011;28;20116;-69
2022/09/02 07:30:03;;;;;;;5.82;1.23;;;;;;;18.57;39.26;99218.47;5037711;28;20048;-69
2022/09/02 07:32:30;;;;;;;1.25;0.98;;;;;;;19.04;37.59;99211.31;5056145;28;20487;-69
2022/09/02 07:34:55;;;;;;;5.97;1.30;;;;;;;19.40;36.61;99208.13;5055232;28;20135;-68
2022/09/02 07:37:20;;;;;;;5.43;1.40;;;;;;;19.74;35.56;99219.47;5062390;28;20059;-70
2022/09/02 07:39:44;;;;;;;1.95;1.40;;;;;;;19.70;35.49;99203.75;5037607;28;20064;-71
2022/09/02 07:42:12;;;;;;;5.82;1.25;;;;;;;19.12;36.07;99207.72;5037489;28;20092;-72
2022/09/02 07:44:39;;;;;;;2.67;1.40;;;;;;;18.34;37.58;99216.47;5037305;28;20051;-72
2022/09/02 07:47:05;;;;;;;3.38;1.88;;;;;;;17.52;39.75;99227.28;5036331;28;20572;-72
2022/09/02 07:49:32;;;;;;;3.85;1.27;;;;;;;16.71;41.22;99227.75;5055481;28;20127;-73
2022/09/02 07:51:57;;;;;;;3.60;1.25;;;;;;;16.08;43.03;99230.59;5037727;28;20036;-72
2022/09/02 07:54:24;;;;;;;0.90;0.80;;;;;;;15.59;44.05;99234.63;5037094;28;20046;-71
2022/09/02 07:56:51;;;;;;;0.77;0.68;;;;;;;15.24;44.62;99240.75;5037584;28;20051;-71
2022/09/02 07:59:17;;;;;;;2.10;1.10;;;;;;;15.06;44.92;99229.94;5037705;28;20044;-72
2022/09/02 08:01:42;;;;;;;1.58;1.42;;;;;;;14.95;44.67;99240.03;5037390;28;20047;-71
2022/09/02 08:04:09;;;;;;;2.88;1.17;;;;;;;14.94;45.08;99243.72;5037033;28;20035;-71
2022/09/02 08:06:34;;;;;;;4.72;1.92;;;;;;;15.81;43.37;99241.41;5020261;28;20113;-72
2022/09/02 08:08:59;;;;;;;1.25;1.15;;;;;;;16.56;41.80;99238.22;5021126;28;20040;-72
2022/09/02 08:11:24;;;;;;;2.50;1.08;;;;;;;17.01;40.05;99240.72;5037846;28;20047;-72
2022/09/02 08:13:49;;;;;;;3.10;0.80;;;;;;;16.95;39.54;99245.88;5038058;28;20585;-72
2022/09/02 08:16:14;;;;;;;1.27;1.17;;;;;;;16.50;40.67;99260.38;5037418;28;20113;-72
2022/09/02 08:18:39;;;;;;;2.38;1.30;;;;;;;15.79;43.28;99259.56;5036871;28;20047;-71
2022/09/02 08:21:04;;;;;;;1.50;1.15;;;;;;;15.12;45.75;99269.63;5036896;28;20044;-72
2022/09/02 08:23:29;;;;;;;2.05;1.27;;;;;;;14.62;47.93;99270.91;5055400;28;20040;-72
2022/09/02 08:25:54;;;;;;;2.20;1.15;;;;;;;14.30;49.15;99276.56;5054777;28;20052;-72
2022/09/02 08:28:19;;;;;;;5.28;1.30;;;;;;;14.83;50.16;99280.47;5055064;28;20039;-72
2022/09/02 08:30:44;;;;;;;1.55;1.25;;;;;;;16.58;46.77;99291.91;5054916;28;20044;-72
2022/09/02 08:33:09;;;;;;;1.98;1.50;;;;;;;17.98;43.21;99285.22;5055882;28;20074;-76
2022/09/02 08:35:34;;;;;;;4.10;1.67;;;;;;;18.26;41.70;99289.34;5055055;28;20079;-76
2022/09/02 08:37:59;;;;;;;2.17;1.98;;;;;;;18.56;41.63;99286.97;5037570;28;20406;-76
2022/09/02 08:40:33;;;;;;;3.92;2.03;;;;;;;19.68;39.55;99287.78;5020623;28;20047;-74
2022/09/02 08:43:00;;;;;;;5.63;1.27;;;;;;;21.85;35.50;99284.34;5055634;28;20040;-76
2022/09/02 08:45:38;;;;;;;2.85;1.55;;;;;;;24.50;32.21;99284.13;5055514;28;20101;-74
2022/09/02 08:48:15;;;;;;;2.28;1.75;;;;;;;27.43;26.96;99289.78;5037324;28;20071;-76
2022/09/02 08:50:43;;;;;;;1.60;1.50;;;;;;;28.60;24.97;99291.28;5055441;28;20105;-76
2022/09/02 08:53:17;;;;;;;1.92;1.77;;;;;;;28.00;25.27;99284.94;5054960;28;20121;-77
2022/09/02 08:55:53;;;;;;;6.63;1.93;;;;;;;26.75;26.31;99297.97;5055289;28;20120;-74
2022/09/02 08:58:21;;;;;;;2.67;2.38;;;;;;;25.01;28.08;99386.34;5056143;28;20056;-71
2022/09/02 09:00:55;;;;;;;5.32;1.88;;;;;;;23.45;29.75;99300.88;5058531;28;20043;-73
2022/09/02 09:03:29;;;;;;;7.20;2.45;;;;;;;21.91;31.13;99295.25;5058532;28;20525;-73
2022/09/02 09:06:06;;;;;;;1.88;1.23;;;;;;;21.76;32.19;99294.47;5058560;28;20044;-73
2022/09/02 09:09:21;;;;;;;4.78;1.70;;;;;;;21.99;33.53;99299.78;5019351;28;20546;-72
2022/09/02 09:12:07;;;;;;;5.25;1.27;;;;;;;21.43;31.60;99290.47;4976746;28;20488;-73
2022/09/02 09:15:01;;;;;;;2.85;1.27;;;;;;;20.65;32.49;99305.28;4976741;28;20520;-72
2022/09/02 09:17:44;;;;;;;5.15;2.13;;;;;;;20.18;33.70;99298.16;4983569;28;20536;-73
2022/09/02 09:20:16;;;;;;;2.38;1.17;;;;;;;20.03;33.44;99299.94;4981803;28;20575;-72
2022/09/02 09:22:41;;;;;;;2.78;1.05;;;;;;;20.09;32.83;99304.63;4976725;28;20080;-72
2022/09/02 09:25:10;;;;;;;1.17;1.08;;;;;;;20.91;31.94;99310.28;4976634;28;20547;-75
2022/09/02 09:27:35;;;;;;;1.52;1.17;;;;;;;21.48;30.97;99309.72;4977076;28;20572;-73
2022/09/02 09:30:01;;;;;;;2.90;1.52;;;;;;;21.51;30.55;99304.78;4976540;28;20596;-71
2022/09/02 09:32:49;;;;;;;3.58;2.03;;;;;;;21.44;32.05;99320.13;4959913;28;20049;-72
2022/09/02 09:35:18;;;;;;;8.13;1.63;;;;;;;20.72;32.15;99329.78;4963371;28;20057;-73
2022/09/02 09:37:47;;;;;;;1.75;1.45;;;;;;;20.18;33.09;99329.81;4986986;28;20052;-71
2022/09/02 09:40:24;;;;;;;2.58;1.58;;;;;;;19.57;34.04;99326.03;4976302;28;20532;-72
2022/09/02 09:43:12;;;;;;;3.35;2.00;;;;;;;19.51;35.36;99338.41;4943948;28;20045;-73
2022/09/02 09:45:42;;;;;;;5.68;1.35;;;;;;;19.60;34.36;99332.94;4982555;28;20049;-73
2022/09/02 09:48:39;;;;;;;7.80;1.77;;;;;;;19.38;34.00;99342.63;5054012;28;20048;-72
2022/09/02 09:51:02;;;;;;;8.52;2.17;;;;;;;18.97;34.93;99341.84;5039087;28;20052;-72
2022/09/02 09:53:31;;;;;;;6.93;2.08;;;;;;;19.19;34.33;99339.28;5057440;28;20079;-72
2022/09/02 09:56:05;;;;;;;1.98;1.58;;;;;;;19.27;34.12;99340.28;5055659;28;20047;-73
2022/09/02 09:58:39;;;;;;;4.30;3.72;;;;;;;19.08;34.92;99339.63;5037912;28;20044;-72
2022/09/02 10:01:22;;;;;;;4.95;2.20;;;;;;;18.83;35.26;99335.28;5019499;28;20533;-74
2022/09/02 10:03:56;;;;;;;2.75;1.30;;;;;;;19.23;34.17;99345.19;5040015;28;20048;-75
2022/09/02 10:06:36;;;;;;;3.53;1.17;;;;;;;20.53;32.31;99359.03;5042582;28;20123;-74
2022/09/02 10:09:21;;;;;;;5.75;1.35;;;;;;;22.00;30.41;99353.88;5020441;28;20533;-75
2022/09/02 10:12:07;;;;;;;1.58;1.00;;;;;;;23.03;29.75;99350.78;5036373;28;20040;-72
2022/09/02 10:14:51;;;;;;;1.75;1.00;;;;;;;22.95;29.69;99358.25;5019534;28;20048;-74
2022/09/02 10:17:35;;;;;;;3.55;1.45;;;;;;;22.43;30.34;99352.09;5002371;28;20388;-73
2022/09/02 10:20:11;;;;;;;7.97;3.92;;;;;;;21.76;30.33;99365.00;5002003;28;20052;-74
2022/09/02 10:22:48;;;;;;;4.53;2.08;;;;;;;20.96;30.76;99365.63;5036681;28;20139;-75
2022/09/02 10:25:22;;;;;;;1.25;1.15;;;;;;;20.10;32.98;99373.97;5018183;28;20052;-75
2022/09/02 10:27:59;;;;;;;2.55;1.20;;;;;;;19.40;35.18;99383.84;5019613;28;20050;-74
2022/09/02 10:30:24;;;;;;;1.42;1.10;;;;;;;18.55;37.33;99395.97;5021952;28;20032;-73
2022/09/02 10:33:00;;;;;;;0.80;0.80;;;;;;;18.01;38.84;99406.28;5036856;28;20051;-71
2022/09/02 10:36:00;;;;;;;1.20;1.00;;;;;;;17.72;39.30;99410.19;5020709;28;20041;-73
2022/09/02 10:38:28;;;;;;;14.35;1.75;;;;;;;17.23;41.14;99421.66;5024183;28;20052;-72
2022/09/02 10:41:00;;;;;;;6.20;1.23;;;;;;;17.01;41.72;99415.78;5038224;28;20049;-71
2022/09/02 10:43:32;;;;;;;0.80;0.80;;;;;;;16.68;42.09;99421.88;5020461;28;20048;-68
2022/09/02 10:46:04;;;;;;;3.50;1.35;;;;;;;16.28;44.16;99425.78;5018626;28;20134;-70
2022/09/02 10:49:09;;;;;;;2.10;1.60;;;;;;;16.10;45.09;99438.38;5036264;28;20074;-69
2022/09/02 10:52:12;;;;;;;5.10;1.95;;;;;;;16.05;44.75;99432.56;5018509;28;20407;-70
2022/09/02 10:54:45;;;;;;;3.08;0.95;;;;;;;15.75;47.15;99439.09;4938803;28;20046;-68
2022/09/02 10:57:22;;;;;;;1.48;1.38;;;;;;;15.44;48.02;99441.16;4950152;28;20538;-69
2022/09/02 10:59:50;;;;;;;1.42;1.23;;;;;;;15.36;48.00;99449.06;4974081;28;20077;-69
2022/09/02 11:02:43;;;;;;;1.10;1.10;;;;;;;15.39;48.22;99439.88;4973411;28;20069;-68
2022/09/02 11:05:25;;;;;;;1.50;1.40;;;;;;;15.16;49.05;99439.34;4967727;28;20058;-69
2022/09/02 11:08:24;;;;;;;1.48;1.15;;;;;;;15.21;49.92;99445.16;4973962;28;20038;-70
2022/09/02 11:11:21;;;;;;;1.15;1.00;;;;;;;15.34;49.64;99434.09;4974199;28;20051;-69
2022/09/02 11:13:51;;;;;;;2.42;1.38;;;;;;;15.27;50.08;99444.56;4974316;28;20439;-67
2022/09/02 11:16:50;;;;;;;7.50;1.63;;;;;;;15.31;48.36;99445.13;4976802;28;20488;-69
2022/09/02 11:19:25;;;;;;;5.13;1.13;;;;;;;15.15;48.68;99454.59;4973969;28;20046;-68
2022/09/02 11:22:02;;;;;;;2.63;1.40;;;;;;;15.15;48.60;99448.41;4974316;28;20045;-68
2022/09/02 11:24:33;;;;;;;1.73;1.55;;;;;;;15.10;49.58;99445.31;4973738;28;20046;-74
2022/09/02 11:27:15;;;;;;;4.57;2.70;;;;;;;15.15;49.54;99449.25;4975952;28;20046;-68
2022/09/02 11:29:45;;;;;;;1.88;1.30;;;;;;;15.09;48.35;99440.94;4974409;28;20050;-68
2022/09/02 11:32:25;;;;;;;1.73;0.98;;;;;;;14.94;47.81;99434.28;5010294;28;20059;-67
2022/09/02 11:34:57;;;;;;;0.95;0.95;;;;;;;14.59;47.73;99441.06;5016799;28;20046;-67
2022/09/02 11:37:49;;;;;;;1.73;1.15;;;;;;;14.43;47.45;99446.13;5022631;28;20048;-69
2022/09/02 11:40:25;;;;;;;0.98;0.88;;;;;;;14.16;48.16;99452.94;5028709;28;20056;-75
2022/09/02 11:43:00;;;;;;;0.90;0.90;;;;;;;14.26;48.15;99460.16;5056711;28;20062;-73
2022/09/02 11:45:47;;;;;;;2.60;1.27;;;;;;;14.55;47.60;99461.13;5023322;28;20105;-75
2022/09/02 11:48:22;;;;;;;0.80;0.80;;;;;;;14.83;46.89;99457.59;5014650;28;20196;-78
2022/09/02 11:50:54;;;;;;;1.27;1.08;;;;;;;15.10;46.10;99448.00;4997924;28;20047;-71
2022/09/02 11:53:37;;;;;;;0.95;0.90;;;;;;;15.17;44.86;99458.00;5012888;28;20049;-73